createdAt,value
2017-12-17T00:01:28.345Z,8.88
2017-12-17T00:03:57.863Z,6.95
2017-12-17T00:06:27.351Z,8.82
2017-12-17T00:08:56.903Z,5.55
2017-12-17T00:11:26.398Z,7.65
2017-12-17T00:13:55.912Z,6.07
2017-12-17T00:16:25.469Z,5.47
2017-12-17T00:18:54.953Z,6.85
2017-12-17T00:21:24.524Z,7.60
2017-12-17T00:23:53.989Z,6.00
2017-12-17T00:26:23.517Z,5.47
2017-12-17T00:28:52.996Z,3.00
2017-12-17T00:31:22.513Z,4.57
2017-12-17T00:33:52.249Z,3.70
2017-12-17T00:36:21.726Z,4.95
2017-12-17T00:38:51.217Z,4.93
2017-12-17T00:41:20.720Z,2.45
2017-12-17T00:43:50.388Z,3.83
2017-12-17T00:46:19.874Z,4.37
2017-12-17T00:48:49.381Z,2.85
2017-12-17T00:51:18.884Z,4.53
2017-12-17T00:53:48.386Z,3.92
2017-12-17T00:56:17.942Z,3.92
2017-12-17T00:58:47.461Z,3.08
2017-12-17T01:01:16.927Z,3.65
2017-12-17T01:03:46.445Z,3.70
2017-12-17T01:06:15.907Z,3.53
2017-12-17T01:08:45.431Z,2.33
2017-12-17T01:11:15.022Z,6.40
2017-12-17T01:13:44.600Z,4.87
2017-12-17T01:16:14.886Z,2.60
2017-12-17T01:18:44.387Z,2.35
2017-12-17T01:21:13.900Z,2.83
2017-12-17T01:23:43.425Z,2.47
2017-12-17T01:26:12.949Z,2.50
2017-12-17T01:28:42.440Z,3.22
2017-12-17T01:31:11.972Z,3.28
2017-12-17T01:33:41.452Z,3.30
2017-12-17T01:36:10.946Z,2.72
2017-12-17T01:38:40.437Z,4.80
2017-12-17T01:41:09.995Z,2.65
2017-12-17T01:43:39.473Z,2.58
2017-12-17T01:46:09.071Z,2.37
2017-12-17T01:48:38.543Z,2.90
2017-12-17T01:51:08.047Z,2.20
2017-12-17T01:53:37.561Z,1.98
2017-12-17T01:56:07.038Z,1.90
2017-12-17T01:58:36.579Z,2.03
2017-12-17T02:01:06.931Z,3.37
2017-12-17T02:03:36.464Z,2.28
2017-12-17T02:06:05.978Z,3.10
2017-12-17T02:08:35.500Z,4.82
2017-12-17T02:11:04.961Z,2.03
2017-12-17T02:13:34.575Z,1.80
2017-12-17T02:16:04.039Z,2.15
2017-12-17T02:18:33.548Z,4.00
2017-12-17T02:21:03.043Z,3.90
2017-12-17T02:23:32.587Z,3.42
2017-12-17T02:26:02.070Z,2.22
2017-12-17T02:28:31.596Z,3.03
2017-12-17T02:31:01.126Z,1.58
2017-12-17T02:33:30.601Z,1.90
2017-12-17T02:36:00.113Z,2.08
2017-12-17T02:38:29.744Z,1.58
2017-12-17T02:40:59.255Z,5.07
2017-12-17T02:43:28.741Z,1.45
2017-12-17T02:45:58.554Z,2.20
2017-12-17T02:48:28.082Z,2.55
2017-12-17T02:50:57.635Z,1.50
2017-12-17T02:53:27.131Z,2.83
2017-12-17T02:55:56.775Z,1.70
2017-12-17T02:58:26.302Z,2.92
2017-12-17T03:00:55.801Z,3.10
2017-12-17T03:03:25.322Z,2.00
2017-12-17T03:05:54.962Z,3.45
2017-12-17T03:08:24.467Z,1.80
2017-12-17T03:10:53.983Z,3.25
2017-12-17T03:13:23.464Z,2.35
2017-12-17T03:15:53.022Z,2.62
2017-12-17T03:18:22.638Z,2.25
2017-12-17T03:20:52.158Z,1.60
2017-12-17T03:23:21.663Z,2.33
2017-12-17T03:25:51.177Z,3.22
2017-12-17T03:28:20.684Z,1.52
2017-12-17T03:30:50.229Z,2.83
2017-12-17T03:33:19.764Z,3.20
2017-12-17T03:35:49.362Z,1.55
2017-12-17T03:38:18.869Z,2.72
2017-12-17T03:40:48.486Z,2.10
2017-12-17T03:43:18.024Z,2.30
2017-12-17T03:45:47.509Z,2.25
2017-12-17T03:48:17.026Z,3.65
2017-12-17T03:50:46.652Z,2.65
2017-12-17T03:53:16.224Z,1.52
2017-12-17T03:55:45.712Z,5.37
2017-12-17T03:58:15.232Z,3.08
2017-12-17T04:00:44.741Z,3.67
2017-12-17T04:03:14.248Z,1.75
2017-12-17T04:05:43.873Z,2.85
2017-12-17T04:08:13.352Z,3.55
2017-12-17T04:10:42.858Z,3.17
2017-12-17T04:13:12.342Z,3.90
2017-12-17T04:15:41.966Z,2.00
2017-12-17T04:18:11.428Z,4.60
2017-12-17T04:20:40.957Z,2.42
2017-12-17T04:23:10.445Z,4.18
2017-12-17T04:25:39.959Z,2.50
2017-12-17T04:28:09.464Z,2.95
2017-12-17T04:30:38.964Z,2.62
2017-12-17T04:33:08.584Z,3.12
2017-12-17T04:35:38.101Z,2.17
2017-12-17T04:38:07.622Z,2.00
2017-12-17T04:40:37.120Z,1.50
2017-12-17T04:43:06.609Z,3.40
2017-12-17T04:45:36.092Z,2.37
2017-12-17T04:48:05.641Z,1.58
2017-12-17T04:50:35.110Z,3.25
2017-12-17T04:53:04.656Z,2.37
2017-12-17T04:55:34.152Z,2.65
2017-12-17T04:58:03.677Z,2.90
2017-12-17T05:00:33.282Z,2.95
2017-12-17T05:03:02.780Z,2.22
2017-12-17T05:05:32.288Z,1.73
2017-12-17T05:08:01.777Z,3.65
2017-12-17T05:10:31.379Z,3.70
2017-12-17T05:13:00.937Z,2.45
2017-12-17T05:15:30.393Z,2.20
2017-12-17T05:18:00.030Z,4.37
2017-12-17T05:20:29.563Z,2.30
2017-12-17T05:22:59.080Z,1.77
2017-12-17T05:25:28.583Z,3.47
2017-12-17T05:27:58.058Z,2.30
2017-12-17T05:30:27.554Z,2.03
2017-12-17T05:32:57.036Z,2.53
2017-12-17T05:35:26.586Z,3.37
2017-12-17T05:37:56.078Z,2.92
2017-12-17T05:40:25.577Z,3.35
2017-12-17T05:42:55.089Z,2.70
2017-12-17T05:45:24.593Z,4.00
2017-12-17T05:47:54.084Z,4.00
2017-12-17T05:50:23.599Z,4.28
2017-12-17T05:52:53.103Z,2.33
2017-12-17T05:55:22.584Z,3.20
2017-12-17T05:57:52.095Z,2.80
2017-12-17T06:00:21.581Z,3.62
2017-12-17T06:02:51.118Z,3.10
2017-12-17T06:05:20.621Z,2.47
2017-12-17T06:07:50.190Z,3.10
2017-12-17T06:10:19.720Z,2.45
2017-12-17T06:12:49.211Z,2.42
2017-12-17T06:15:18.808Z,5.10
2017-12-17T06:17:48.367Z,2.95
2017-12-17T06:20:17.869Z,4.12
2017-12-17T06:22:47.372Z,2.10
2017-12-17T06:25:16.981Z,1.87
2017-12-17T06:27:46.447Z,3.62
2017-12-17T06:30:15.964Z,2.10
2017-12-17T06:32:45.482Z,2.25
2017-12-17T06:35:14.961Z,2.37
2017-12-17T06:37:44.496Z,3.20
2017-12-17T06:40:13.959Z,3.58
2017-12-17T06:42:43.496Z,4.35
2017-12-17T06:45:12.956Z,4.07
2017-12-17T06:47:42.504Z,1.75
2017-12-17T06:50:12.005Z,2.28
2017-12-17T06:52:41.522Z,2.62
2017-12-17T06:55:10.996Z,2.72
2017-12-17T06:57:40.508Z,1.48
2017-12-17T07:00:10.147Z,1.92
2017-12-17T07:02:39.683Z,3.45
2017-12-17T07:05:09.365Z,2.22
2017-12-17T07:07:38.903Z,2.58
2017-12-17T07:10:08.419Z,2.62
2017-12-17T07:12:37.956Z,1.98
2017-12-17T07:15:07.460Z,2.70
2017-12-17T07:17:36.984Z,1.90
2017-12-17T07:20:06.506Z,1.67
2017-12-17T07:22:36.002Z,2.45
2017-12-17T07:25:05.513Z,2.10
2017-12-17T07:27:35.040Z,2.30
2017-12-17T07:30:04.524Z,3.03
2017-12-17T07:32:34.042Z,2.42
2017-12-17T07:35:03.581Z,1.75
2017-12-17T07:37:33.089Z,3.65
2017-12-17T07:40:02.622Z,1.80
2017-12-17T07:42:32.134Z,2.20
2017-12-17T07:45:01.655Z,2.35
2017-12-17T07:47:31.145Z,1.95
2017-12-17T07:50:00.670Z,2.08
2017-12-17T07:52:30.171Z,2.50
2017-12-17T07:54:59.704Z,2.42
2017-12-17T07:57:29.196Z,3.72
2017-12-17T07:59:58.812Z,2.50
2017-12-17T08:02:28.439Z,2.70
2017-12-17T08:04:57.987Z,1.80
2017-12-17T08:07:27.600Z,2.42
2017-12-17T08:09:57.165Z,3.05
2017-12-17T08:12:26.705Z,2.78
2017-12-17T08:14:56.209Z,2.05
2017-12-17T08:17:25.691Z,3.65
2017-12-17T08:19:55.231Z,2.05
2017-12-17T08:22:24.768Z,2.65
2017-12-17T08:24:54.252Z,3.83
2017-12-17T08:27:23.758Z,4.43
2017-12-17T08:29:53.250Z,2.00
2017-12-17T08:32:22.781Z,2.85
2017-12-17T08:34:52.428Z,3.12
2017-12-17T08:37:21.980Z,3.35
2017-12-17T08:39:51.461Z,3.28
2017-12-17T08:42:20.983Z,3.53
2017-12-17T08:44:50.553Z,2.00
2017-12-17T08:47:20.051Z,2.55
2017-12-17T08:49:49.555Z,3.30
2017-12-17T08:52:19.055Z,3.40
2017-12-17T08:54:48.538Z,2.25
2017-12-17T08:57:18.132Z,1.87
2017-12-17T08:59:47.550Z,4.60
2017-12-17T09:02:17.143Z,2.85
2017-12-17T09:04:46.902Z,7.18
2017-12-17T09:07:16.349Z,3.40
2017-12-17T09:09:45.843Z,3.47
2017-12-17T09:12:15.332Z,2.30
2017-12-17T09:14:44.844Z,3.35
2017-12-17T09:17:14.445Z,3.10
2017-12-17T09:19:43.964Z,2.62
2017-12-17T09:22:13.464Z,3.70
2017-12-17T09:24:42.990Z,2.72
2017-12-17T09:27:12.513Z,2.17
2017-12-17T09:29:42.023Z,3.37
2017-12-17T09:32:11.526Z,3.42
2017-12-17T09:34:41.059Z,2.53
2017-12-17T09:37:10.727Z,2.70
2017-12-17T09:39:40.235Z,2.60
2017-12-17T09:42:09.721Z,2.47
2017-12-17T09:44:39.244Z,2.30
2017-12-17T09:47:08.925Z,2.95
2017-12-17T09:49:38.413Z,4.72
2017-12-17T09:52:07.953Z,3.17
2017-12-17T09:54:37.512Z,2.00
2017-12-17T09:57:07.144Z,4.15
2017-12-17T09:59:36.687Z,1.87
2017-12-17T10:02:06.216Z,2.80
2017-12-17T10:04:35.754Z,3.15
2017-12-17T10:07:05.305Z,2.50
2017-12-17T10:09:34.760Z,3.25
2017-12-17T10:12:04.258Z,2.97
2017-12-17T10:14:33.826Z,2.42
2017-12-17T10:17:03.432Z,2.85
2017-12-17T10:19:32.981Z,2.67
2017-12-17T10:22:02.464Z,2.55
2017-12-17T10:24:31.943Z,2.50
2017-12-17T10:27:01.496Z,2.83
2017-12-17T10:29:31.025Z,2.25
2017-12-17T10:32:00.589Z,3.58
2017-12-17T10:34:30.076Z,2.30
2017-12-17T10:36:59.569Z,2.30
2017-12-17T10:39:29.070Z,5.45
2017-12-17T10:41:58.591Z,2.28
2017-12-17T10:44:28.107Z,2.37
2017-12-17T10:46:57.587Z,3.20
2017-12-17T10:49:27.191Z,2.58
2017-12-17T10:51:56.698Z,6.65
2017-12-17T10:54:26.203Z,4.72
2017-12-17T10:56:55.696Z,3.78
2017-12-17T10:59:25.220Z,5.93
2017-12-17T11:01:54.743Z,5.47
2017-12-17T11:04:24.282Z,4.10
2017-12-17T11:06:53.865Z,4.22
2017-12-17T11:09:23.396Z,4.85
2017-12-17T11:11:52.911Z,4.70
2017-12-17T11:14:22.401Z,3.97
2017-12-17T11:16:51.922Z,5.62
2017-12-17T11:19:21.374Z,3.33
2017-12-17T11:21:51.253Z,3.87
2017-12-17T11:24:20.754Z,4.68
2017-12-17T11:26:50.271Z,2.85
2017-12-17T11:29:19.739Z,2.47
2017-12-17T11:31:49.257Z,2.20
2017-12-17T11:34:18.771Z,3.15
2017-12-17T11:36:48.468Z,3.28
2017-12-17T11:39:17.964Z,1.87
2017-12-17T11:41:47.479Z,2.37
2017-12-17T11:44:16.957Z,2.42
2017-12-17T11:46:46.476Z,3.22
2017-12-17T11:49:16.003Z,3.70
2017-12-17T11:51:45.483Z,4.22
2017-12-17T11:54:14.996Z,1.75
2017-12-17T11:56:44.497Z,2.90
2017-12-17T11:59:13.995Z,3.55
2017-12-17T12:01:43.496Z,2.00
2017-12-17T12:04:13.092Z,1.90
2017-12-17T12:06:42.567Z,2.70
2017-12-17T12:09:12.136Z,2.78
2017-12-17T12:11:41.603Z,2.10
2017-12-17T12:14:11.119Z,3.55
2017-12-17T12:16:40.632Z,2.70
2017-12-17T12:19:10.143Z,2.65
2017-12-17T12:21:39.618Z,2.15
2017-12-17T12:24:09.120Z,2.25
2017-12-17T12:26:38.602Z,2.50
2017-12-17T12:29:08.219Z,3.12
2017-12-17T12:31:37.762Z,2.67
2017-12-17T12:34:07.312Z,1.92
2017-12-17T12:36:36.837Z,1.80
2017-12-17T12:39:06.315Z,1.70
2017-12-17T12:41:36.002Z,2.40
2017-12-17T12:44:05.488Z,2.28
2017-12-17T12:46:35.083Z,1.60
2017-12-17T12:49:04.560Z,2.22
2017-12-17T12:51:34.078Z,1.62
2017-12-17T12:54:03.580Z,2.62
2017-12-17T12:56:33.170Z,2.40
2017-12-17T12:59:02.765Z,1.87
2017-12-17T13:01:32.251Z,1.67
2017-12-17T13:04:01.768Z,1.40
2017-12-17T13:06:31.266Z,2.30
2017-12-17T13:09:00.724Z,2.87
2017-12-17T13:11:30.256Z,2.55
2017-12-17T13:13:59.787Z,2.30
2017-12-17T13:16:29.288Z,2.72
2017-12-17T13:18:58.795Z,2.25
2017-12-17T13:21:28.342Z,1.70
2017-12-17T13:23:57.832Z,1.60
2017-12-17T13:26:27.355Z,2.10
2017-12-17T13:28:56.824Z,1.65
2017-12-17T13:31:26.344Z,2.05
2017-12-17T13:33:55.987Z,1.75
2017-12-17T13:36:25.488Z,1.58
2017-12-17T13:38:54.962Z,1.45
2017-12-17T13:41:24.510Z,1.55
2017-12-17T13:43:53.986Z,1.92
2017-12-17T13:46:23.934Z,1.52
2017-12-17T13:48:53.510Z,3.72
2017-12-17T13:51:23.033Z,1.58
2017-12-17T13:53:52.689Z,2.28
2017-12-17T13:56:22.186Z,2.25
2017-12-17T13:58:51.700Z,1.50
2017-12-17T14:01:21.171Z,1.77
2017-12-17T14:03:50.685Z,1.52
2017-12-17T14:06:20.171Z,1.42
2017-12-17T14:08:49.704Z,2.47
2017-12-17T14:11:19.190Z,1.60
2017-12-17T14:13:48.874Z,1.83
2017-12-17T14:16:18.391Z,1.73
2017-12-17T14:18:47.909Z,1.55
2017-12-17T14:21:17.426Z,4.50
2017-12-17T14:23:47.213Z,2.10
2017-12-17T14:26:16.672Z,1.70
2017-12-17T14:28:46.193Z,1.30
2017-12-17T14:31:15.639Z,1.75
2017-12-17T14:33:45.138Z,3.12
2017-12-17T14:36:14.611Z,1.83
2017-12-17T14:38:50.042Z,1.70
2017-12-17T14:41:20.362Z,2.33
2017-12-17T14:43:49.871Z,1.83
2017-12-17T14:46:19.618Z,2.15
2017-12-17T14:48:49.117Z,3.28
2017-12-17T14:51:18.597Z,3.15
2017-12-17T14:53:48.141Z,1.90
2017-12-17T14:56:17.609Z,2.47
2017-12-17T14:58:47.200Z,3.03
2017-12-17T15:01:17.635Z,2.10
2017-12-17T15:03:47.340Z,2.92
2017-12-17T15:06:16.867Z,5.35
2017-12-17T15:08:46.352Z,2.25
2017-12-17T15:11:15.888Z,3.85
2017-12-17T15:13:45.467Z,2.97
2017-12-17T15:16:14.970Z,2.55
2017-12-17T15:18:44.622Z,2.47
2017-12-17T15:21:14.134Z,2.65
2017-12-17T15:23:45.184Z,2.67
2017-12-17T15:26:14.861Z,2.33
2017-12-17T15:28:44.318Z,3.10
2017-12-17T15:31:13.835Z,2.42
2017-12-17T15:33:43.299Z,2.35
2017-12-17T15:36:12.932Z,1.95
2017-12-17T15:38:42.431Z,2.75
2017-12-17T15:41:11.948Z,2.75
2017-12-17T15:43:41.525Z,2.42
2017-12-17T15:46:11.064Z,3.22
2017-12-17T15:48:40.622Z,2.65
2017-12-17T15:51:10.095Z,3.05
2017-12-17T15:53:39.607Z,2.65
2017-12-17T15:56:09.087Z,3.83
2017-12-17T15:58:38.604Z,3.28
2017-12-17T16:01:08.099Z,2.85
2017-12-17T16:03:37.624Z,3.20
2017-12-17T16:06:07.106Z,2.50
2017-12-17T16:08:36.740Z,2.40
2017-12-17T16:11:06.236Z,2.25
2017-12-17T16:13:35.747Z,2.70
2017-12-17T16:16:05.877Z,2.90
2017-12-17T16:18:35.488Z,3.35
2017-12-17T16:21:04.984Z,2.28
2017-12-17T16:23:34.505Z,2.37
2017-12-17T16:26:03.998Z,1.90
2017-12-17T16:28:33.683Z,2.25
2017-12-17T16:31:03.242Z,2.70
2017-12-17T16:33:32.778Z,2.87
2017-12-17T16:36:02.274Z,2.95
2017-12-17T16:38:31.779Z,2.30
2017-12-17T16:41:01.305Z,3.05
2017-12-17T16:43:30.848Z,2.97
2017-12-17T16:46:00.378Z,2.70
2017-12-17T16:48:29.987Z,2.40
2017-12-17T16:50:59.517Z,2.70
2017-12-17T16:53:29.000Z,2.50
2017-12-17T16:55:58.522Z,5.53
2017-12-17T16:58:28.032Z,2.47
2017-12-17T17:00:57.540Z,4.32
2017-12-17T17:03:27.251Z,3.58
2017-12-17T17:05:56.778Z,3.10
2017-12-17T17:08:26.261Z,3.50
2017-12-17T17:10:55.801Z,3.47
2017-12-17T17:13:25.436Z,3.70
2017-12-17T17:15:54.982Z,4.55
2017-12-17T17:18:24.486Z,6.75
2017-12-17T17:20:53.970Z,4.70
2017-12-17T17:23:23.474Z,5.45
2017-12-17T17:25:53.004Z,4.57
2017-12-17T17:28:22.542Z,5.47
2017-12-17T17:30:52.016Z,3.85
2017-12-17T17:33:21.548Z,4.28
2017-12-17T17:35:51.209Z,3.53
2017-12-17T17:38:20.684Z,4.90
2017-12-17T17:40:50.321Z,7.12
2017-12-17T17:43:19.813Z,5.68
2017-12-17T17:45:49.336Z,6.12
2017-12-17T17:48:18.815Z,4.80
2017-12-17T17:50:49.305Z,9.77
2017-12-17T17:53:18.806Z,36.58
2017-12-17T17:55:48.313Z,33.47
2017-12-17T17:58:17.932Z,43.60
2017-12-17T18:00:47.493Z,54.40
2017-12-17T18:03:16.967Z,58.22
2017-12-17T18:05:46.508Z,65.47
2017-12-17T18:08:15.989Z,76.32
2017-12-17T18:10:45.494Z,86.50
2017-12-17T18:13:15.048Z,75.18
2017-12-17T18:15:44.718Z,94.82
2017-12-17T18:18:14.291Z,78.68
2017-12-17T18:20:43.876Z,110.25
2017-12-17T18:23:13.410Z,120.35
2017-12-17T18:25:43.014Z,107.28
2017-12-17T18:28:12.572Z,102.68
2017-12-17T18:30:42.163Z,118.87
2017-12-17T18:33:11.714Z,95.65
2017-12-17T18:35:41.415Z,131.87
2017-12-17T18:38:10.890Z,128.65
2017-12-17T18:40:40.464Z,106.20
2017-12-17T18:43:09.943Z,118.25
2017-12-17T18:45:39.466Z,110.63
2017-12-17T18:48:09.603Z,96.22
2017-12-17T18:50:39.123Z,105.07
2017-12-17T18:53:08.621Z,82.80
2017-12-17T18:55:38.132Z,98.57
2017-12-17T18:58:07.655Z,91.18
2017-12-17T19:00:37.439Z,91.87
2017-12-17T19:03:06.927Z,96.18
2017-12-17T19:05:36.477Z,90.30
2017-12-17T19:08:06.044Z,94.93
2017-12-17T19:10:35.762Z,74.87
2017-12-17T19:13:05.374Z,96.15
2017-12-17T19:15:34.932Z,92.97
2017-12-17T19:18:04.447Z,107.53
2017-12-17T19:20:34.053Z,104.05
2017-12-17T19:23:03.595Z,72.10
2017-12-17T19:25:33.098Z,77.55
2017-12-17T19:28:02.624Z,82.35
2017-12-17T19:30:32.163Z,83.37
2017-12-17T19:33:01.719Z,74.72
2017-12-17T19:35:31.234Z,73.82
2017-12-17T19:38:01.585Z,65.75
2017-12-17T19:40:31.094Z,69.18
2017-12-17T19:43:00.675Z,71.30
2017-12-17T19:45:30.155Z,70.78
2017-12-17T19:47:59.735Z,66.40
2017-12-17T19:50:29.465Z,65.00
2017-12-17T19:52:59.729Z,67.20
2017-12-17T19:55:30.217Z,69.72
2017-12-17T19:58:00.031Z,57.50
2017-12-17T20:00:29.949Z,59.38
2017-12-17T20:03:00.700Z,60.10
2017-12-17T20:05:30.706Z,57.13
2017-12-17T20:08:00.731Z,59.88
2017-12-17T20:10:30.564Z,44.15
2017-12-17T20:13:00.466Z,49.20
2017-12-17T20:15:30.483Z,38.20
2017-12-17T20:18:00.504Z,38.30
2017-12-17T20:20:30.420Z,37.22
2017-12-17T20:23:00.445Z,44.10
2017-12-17T20:25:30.624Z,29.45
2017-12-17T20:28:00.485Z,25.30
2017-12-17T20:30:30.298Z,21.30
2017-12-17T20:33:00.244Z,19.33
2017-12-17T20:35:30.237Z,22.35
2017-12-17T20:38:00.260Z,23.12
2017-12-17T20:40:30.278Z,21.60
2017-12-17T20:43:00.208Z,22.87
2017-12-17T20:45:30.217Z,21.02
2017-12-17T20:47:59.907Z,18.80
2017-12-17T20:50:29.521Z,13.60
2017-12-17T20:52:59.065Z,16.55
2017-12-17T20:55:28.577Z,15.20
2017-12-17T20:57:58.132Z,16.73
2017-12-17T21:00:28.384Z,14.50
2017-12-17T21:02:57.921Z,16.77
2017-12-17T21:05:27.729Z,15.18
2017-12-17T21:07:57.283Z,14.95
2017-12-17T21:10:26.775Z,17.75
2017-12-17T21:12:56.344Z,12.88
2017-12-17T21:15:25.836Z,14.77
2017-12-17T21:17:55.375Z,10.82
2017-12-17T21:20:24.898Z,9.18
2017-12-17T21:22:54.351Z,9.60
2017-12-17T21:25:23.907Z,12.20
2017-12-17T21:27:53.414Z,9.73
2017-12-17T21:30:23.056Z,10.48
2017-12-17T21:32:52.555Z,8.07
2017-12-17T21:35:22.116Z,6.57
2017-12-17T21:37:51.594Z,6.15
2017-12-17T21:40:21.138Z,7.82
2017-12-17T21:42:50.651Z,6.62
2017-12-17T21:45:20.149Z,6.87
2017-12-17T21:47:49.638Z,6.70
2017-12-17T21:50:19.291Z,5.72
2017-12-17T21:52:48.811Z,5.40
2017-12-17T21:55:18.317Z,6.50
2017-12-17T21:57:47.864Z,6.65
2017-12-17T22:00:17.475Z,6.37
2017-12-17T22:02:46.985Z,6.00
2017-12-17T22:05:16.498Z,6.68
2017-12-17T22:07:45.993Z,4.72
2017-12-17T22:10:15.513Z,4.53
2017-12-17T22:12:45.039Z,4.95
2017-12-17T22:15:14.566Z,3.90
2017-12-17T22:17:44.230Z,3.40
2017-12-17T22:20:13.710Z,5.35
2017-12-17T22:22:43.341Z,5.22
2017-12-17T22:25:12.847Z,3.10
2017-12-17T22:27:42.367Z,3.78
2017-12-17T22:30:11.894Z,5.03
2017-12-17T22:32:41.387Z,3.78
2017-12-17T22:35:10.949Z,3.62
2017-12-17T22:37:40.427Z,3.20
2017-12-17T22:40:09.966Z,3.25
2017-12-17T22:42:39.568Z,3.60
2017-12-17T22:45:09.108Z,4.00
2017-12-17T22:47:38.577Z,3.90
2017-12-17T22:50:08.109Z,5.05
2017-12-17T22:52:37.827Z,3.53
2017-12-17T22:55:07.337Z,2.80
2017-12-17T22:57:36.858Z,2.22
2017-12-17T23:00:06.342Z,3.65
2017-12-17T23:02:35.878Z,4.18
2017-12-17T23:05:05.364Z,3.05
2017-12-17T23:07:34.962Z,3.12
2017-12-17T23:10:04.476Z,4.75
2017-12-17T23:12:33.979Z,4.50
2017-12-17T23:15:03.463Z,3.17
2017-12-17T23:17:32.975Z,3.53
2017-12-17T23:20:02.523Z,5.57
2017-12-17T23:22:32.065Z,2.70
2017-12-17T23:25:01.552Z,2.85
2017-12-17T23:27:31.070Z,3.10
2017-12-17T23:30:00.593Z,6.07
2017-12-17T23:32:30.252Z,5.37
2017-12-17T23:34:59.748Z,4.65
2017-12-17T23:37:29.233Z,3.83
2017-12-17T23:39:58.734Z,3.95
2017-12-17T23:42:28.217Z,3.55
2017-12-17T23:44:57.751Z,4.12
2017-12-17T23:47:27.426Z,5.20
2017-12-17T23:49:56.956Z,4.87
2017-12-17T23:52:26.555Z,4.40
2017-12-17T23:54:56.024Z,3.35
2017-12-17T23:57:25.575Z,5.65
2017-12-17T23:59:55.087Z,4.30
